Time,TemperatureF,DewpointF,PressureIn,WindDirection,WindDirectionDegrees,WindSpeedMPH,WindSpeedGustMPH,Humidity,HourlyPrecipIn,Conditions,Clouds,dailyrainin,SolarRadiationWatts/m^2,SoftwareType,DateUTC
2013-06-28 06:30:00,67.0,40.0,-100.00,ENE,73,6.0,10.0,38,-99.99,,,-99.99,22.000000,,2013-06-28 13:30:00,
2013-06-28 09:30:00,74.0,43.0,-100.00,ESE,111,3.0,8.0,33,-99.99,,,-99.99,501.000000,,2013-06-28 16:30:00,
2013-06-28 11:30:00,74.0,48.0,-100.00,SW,234,3.0,5.0,39,-99.99,,,-99.99,704.000000,,2013-06-28 18:30:00,
2013-06-28 12:22:00,74.0,48.0,-100.00,SW,234,3.0,5.0,39,-99.99,,,-99.99,704.000000,,2013-06-28 19:22:00,
2013-06-28 12:30:00,75.0,53.0,-100.00,West,261,2.0,6.0,47,-99.99,,,-99.99,749.000000,,2013-06-28 19:30:00,
2013-06-28 13:22:00,75.0,53.0,-100.00,West,261,2.0,6.0,47,-99.99,,,-99.99,749.000000,,2013-06-28 20:22:00,
2013-06-28 13:30:00,73.0,52.0,-100.00,WSW,238,3.0,7.0,48,-99.99,,,-99.99,749.000000,,2013-06-28 20:30:00,
2013-06-28 14:30:00,73.0,48.0,-100.00,WSW,237,3.0,8.0,41,-99.99,,,-99.99,712.000000,,2013-06-28 21:30:00,
2013-06-28 15:30:00,74.0,45.0,-100.00,WNW,296,1.0,6.0,36,-99.99,,,-99.99,47.000000,,2013-06-28 22:30:00,
2013-06-28 16:23:00,74.0,45.0,-100.00,WNW,296,1.0,6.0,36,-99.99,,,-99.99,47.000000,,2013-06-28 23:23:00,
2013-06-28 16:30:00,72.0,45.0,-100.00,West,275,2.0,7.0,38,-99.99,,,-99.99,30.000000,,2013-06-28 23:30:00,
2013-06-28 17:22:00,72.0,45.0,-100.00,West,275,2.0,7.0,38,-99.99,,,-99.99,30.000000,,2013-06-29 00:22:00,
2013-06-28 17:30:00,73.0,46.0,-100.00,SSW,211,2.0,5.0,39,-99.99,,,-99.99,292.000000,,2013-06-29 00:30:00,
2013-06-28 18:22:00,73.0,46.0,-100.00,SSW,211,2.0,5.0,39,-99.99,,,-99.99,292.000000,,2013-06-29 01:22:00,
2013-06-28 18:30:00,72.0,48.0,-100.00,West,279,3.0,6.0,42,-99.99,,,-99.99,213.000000,,2013-06-29 01:30:00,
2013-06-28 19:21:00,72.0,48.0,-100.00,West,279,3.0,6.0,42,-99.99,,,-99.99,213.000000,,2013-06-29 02:21:00,
2013-06-28 19:30:00,68.0,50.0,-100.00,NW,315,2.0,5.0,51,-99.99,,,-99.99,15.000000,,2013-06-29 02:30:00,
2013-06-28 20:21:00,68.0,50.0,-100.00,NW,315,2.0,5.0,51,-99.99,,,-99.99,15.000000,,2013-06-29 03:21:00,
2013-06-28 20:30:00,65.0,49.0,-100.00,NW,320,2.0,4.0,57,-99.99,,,-99.99,4.000000,,2013-06-29 03:30:00,
2013-06-28 21:22:00,65.0,49.0,-100.00,NW,320,2.0,4.0,57,-99.99,,,-99.99,4.000000,,2013-06-29 04:22:00,
2013-06-28 21:30:00,62.0,48.0,-100.00,WNW,285,1.0,2.0,60,-99.99,,,-99.99,0.000000,,2013-06-29 04:30:00,
2013-06-28 22:30:00,62.0,46.0,-100.00,NNE,13,2.0,3.0,56,-99.99,,,-99.99,0.000000,,2013-06-29 05:30:00,
2013-06-28 23:30:00,63.0,48.0,-100.00,ENE,75,1.0,3.0,57,-99.99,,,-99.99,0.000000,,2013-06-29 06:30:00,